Time;durP1;ratioP1;P1;durP2;ratioP2;P2;SDS_P1;SDS_P2;PMS_P1;PMS_P2;Temp;Humidity;BMP_temperature;BMP_pressure;BME280_temperature;BME280_humidity;BME280_pressure;Samples;Min_cycle;Max_cycle;Signal;HPM_P1;HPM_P2
2021/01/09 00:00:26;;;;;;;10.55;6.60;;;0.60;99.90;;;;;;4963853;28;20140;-70
2021/01/09 00:02:53;;;;;;;13.30;7.30;;;0.60;99.90;;;;;;4964339;28;20035;-64
2021/01/09 00:05:19;;;;;;;14.48;7.55;;;0.60;99.90;;;;;;4962066;28;20035;-67
2021/01/09 00:07:46;;;;;;;9.88;6.60;;;0.60;99.90;;;;;;4963171;28;20153;-71
2021/01/09 00:10:12;;;;;;;8.80;5.90;;;0.60;99.90;;;;;;4963321;28;20035;-64
2021/01/09 00:12:39;;;;;;;12.98;7.72;;;0.60;99.90;;;;;;4963542;28;20051;-68
2021/01/09 00:15:07;;;;;;;9.05;6.05;;;0.50;99.90;;;;;;4962783;28;20047;-68
2021/01/09 00:17:38;;;;;;;11.68;6.93;;;0.60;99.90;;;;;;4961807;28;20711;-67
2021/01/09 00:20:15;;;;;;;9.07;5.50;;;0.50;99.90;;;;;;4964049;28;20050;-65
2021/01/09 00:22:42;;;;;;;9.43;6.65;;;0.50;99.90;;;;;;4962806;28;20067;-74
2021/01/09 00:25:11;;;;;;;13.32;6.30;;;0.50;99.90;;;;;;4962166;28;20175;-70
2021/01/09 00:27:39;;;;;;;12.35;7.28;;;0.50;99.90;;;;;;4963829;28;20047;-65
2021/01/09 00:30:07;;;;;;;11.35;6.18;;;0.50;99.90;;;;;;4964247;28;20145;-69
2021/01/09 00:32:34;;;;;;;9.65;5.40;;;0.50;99.90;;;;;;4963557;28;20561;-71
2021/01/09 00:35:02;;;;;;;8.48;5.93;;;0.50;99.90;;;;;;4964307;28;20058;-65
2021/01/09 00:37:30;;;;;;;8.48;5.90;;;0.50;99.90;;;;;;4961915;28;20561;-66
2021/01/09 00:39:57;;;;;;;10.20;6.15;;;0.50;99.90;;;;;;4962802;28;20090;-64
2021/01/09 00:42:23;;;;;;;10.55;5.63;;;0.50;99.90;;;;;;4965309;28;20855;-65
2021/01/09 00:44:50;;;;;;;9.05;5.38;;;0.50;99.90;;;;;;4963695;28;20047;-66
2021/01/09 00:47:16;;;;;;;8.57;6.80;;;0.50;99.90;;;;;;4962071;28;20138;-65
2021/01/09 00:49:43;;;;;;;11.70;6.22;;;0.50;99.90;;;;;;4963893;28;20035;-64
2021/01/09 00:52:09;;;;;;;11.95;6.50;;;0.50;99.90;;;;;;4966476;28;20046;-67
2021/01/09 00:54:37;;;;;;;9.85;6.22;;;0.50;99.90;;;;;;4967552;28;20047;-68
2021/01/09 00:57:04;;;;;;;9.82;6.28;;;0.50;99.90;;;;;;4967194;28;20802;-68
2021/01/09 00:59:30;;;;;;;10.15;6.00;;;0.50;99.90;;;;;;4966193;28;20124;-68
2021/01/09 01:01:57;;;;;;;8.88;5.43;;;0.50;99.90;;;;;;4966986;28;20066;-66
2021/01/09 01:04:24;;;;;;;10.52;6.28;;;0.50;99.90;;;;;;4967791;28;20046;-68
2021/01/09 01:06:51;;;;;;;10.98;6.25;;;0.50;99.90;;;;;;4966727;28;20458;-69
2021/01/09 01:09:17;;;;;;;10.00;6.05;;;0.50;99.90;;;;;;4965591;28;20047;-65
2021/01/09 01:11:44;;;;;;;8.80;5.65;;;0.60;99.90;;;;;;4964518;28;20050;-68
2021/01/09 01:14:11;;;;;;;8.80;4.95;;;0.60;99.90;;;;;;4967595;28;20089;-66
2021/01/09 01:16:43;;;;;;;11.13;5.70;;;0.60;99.90;;;;;;4966682;28;20058;-68
2021/01/09 01:19:12;;;;;;;8.70;5.75;;;0.60;99.90;;;;;;4965288;28;20046;-65
2021/01/09 01:21:38;;;;;;;9.27;5.07;;;0.60;99.90;;;;;;4967404;28;20734;-64
2021/01/09 01:24:06;;;;;;;7.93;5.30;;;0.60;99.90;;;;;;4965710;28;20419;-66
2021/01/09 01:26:32;;;;;;;8.00;5.03;;;0.60;99.90;;;;;;4967273;28;20047;-65
2021/01/09 01:29:00;;;;;;;10.40;5.40;;;0.60;99.90;;;;;;4967036;28;20141;-69
2021/01/09 01:31:27;;;;;;;9.07;5.70;;;0.60;99.90;;;;;;4965176;28;20471;-67
2021/01/09 01:33:53;;;;;;;11.60;6.82;;;0.60;99.90;;;;;;4967125;28;20276;-67
2021/01/09 01:36:20;;;;;;;7.55;5.85;;;0.60;99.90;;;;;;4966528;28;20150;-68
2021/01/09 01:38:46;;;;;;;11.02;6.10;;;0.60;99.90;;;;;;4965577;28;20253;-68
2021/01/09 01:41:13;;;;;;;10.00;5.20;;;0.60;99.90;;;;;;4964985;28;20054;-64
2021/01/09 01:43:40;;;;;;;8.30;5.32;;;0.60;99.90;;;;;;4966606;28;20072;-68
2021/01/09 01:46:08;;;;;;;12.13;5.88;;;0.60;99.90;;;;;;4965990;28;20129;-70
2021/01/09 01:48:36;;;;;;;9.70;6.72;;;0.60;99.90;;;;;;4964640;28;20050;-64
2021/01/09 01:51:03;;;;;;;11.10;5.57;;;0.60;99.90;;;;;;4965984;28;20475;-65
2021/01/09 01:53:31;;;;;;;8.32;5.10;;;0.60;99.90;;;;;;4962328;28;20788;-68
2021/01/09 01:55:58;;;;;;;11.18;5.45;;;0.60;99.90;;;;;;4963564;28;20051;-65
2021/01/09 01:58:25;;;;;;;10.57;6.53;;;0.60;99.90;;;;;;4966263;28;20046;-64
2021/01/09 02:01:10;;;;;;;10.35;6.47;;;0.60;99.90;;;;;;4964832;28;20097;-68
2021/01/09 02:03:37;;;;;;;11.23;7.10;;;0.60;99.90;;;;;;4966380;28;20398;-72
2021/01/09 02:06:11;;;;;;;8.90;5.50;;;0.60;99.90;;;;;;4965401;28;20047;-68
2021/01/09 02:08:45;;;;;;;14.98;6.70;;;0.70;99.90;;;;;;4964130;28;20424;-69
2021/01/09 02:11:20;;;;;;;10.50;6.15;;;0.70;99.90;;;;;;4962499;28;20536;-68
2021/01/09 02:13:55;;;;;;;8.88;5.90;;;0.70;99.90;;;;;;4965792;28;20043;-65
2021/01/09 02:16:24;;;;;;;12.05;5.45;;;0.60;99.90;;;;;;4966107;28;20062;-67
2021/01/09 02:18:52;;;;;;;10.15;5.90;;;0.60;99.90;;;;;;4965572;28;20045;-65
2021/01/09 02:21:27;;;;;;;9.52;5.65;;;0.60;99.90;;;;;;4964536;28;20050;-66
2021/01/09 02:23:54;;;;;;;10.80;6.20;;;0.60;99.90;;;;;;4964909;28;20082;-70
2021/01/09 02:26:20;;;;;;;9.95;5.97;;;0.60;99.90;;;;;;4961778;28;20465;-64
2021/01/09 02:28:47;;;;;;;9.68;6.15;;;0.60;99.90;;;;;;4963305;28;20086;-66
2021/01/09 02:31:18;;;;;;;12.85;5.28;;;0.60;99.90;;;;;;4963908;28;20057;-66
2021/01/09 02:33:48;;;;;;;11.50;6.72;;;0.60;99.90;;;;;;4965997;28;20063;-67
2021/01/09 02:36:16;;;;;;;9.25;5.82;;;0.60;99.90;;;;;;4965661;28;20741;-66
2021/01/09 02:38:43;;;;;;;11.30;6.70;;;0.60;99.90;;;;;;4964589;28;20129;-64
2021/01/09 02:41:13;;;;;;;6.82;5.13;;;0.60;99.90;;;;;;4964045;28;20049;-66
2021/01/09 02:43:39;;;;;;;8.13;5.93;;;0.60;99.90;;;;;;4964700;28;20050;-68
2021/01/09 02:46:06;;;;;;;11.75;6.30;;;0.60;99.90;;;;;;4965326;28;20055;-65
2021/01/09 02:48:32;;;;;;;9.02;5.78;;;0.60;99.90;;;;;;4965234;28;20046;-64
2021/01/09 02:50:58;;;;;;;10.30;6.57;;;0.60;99.90;;;;;;4965254;28;20046;-68
2021/01/09 02:53:25;;;;;;;8.80;5.43;;;0.60;99.90;;;;;;4961453;28;20511;-67
2021/01/09 02:55:52;;;;;;;10.07;5.45;;;0.60;99.90;;;;;;4960055;28;20050;-66
2021/01/09 02:58:18;;;;;;;9.65;5.18;;;0.60;99.90;;;;;;4964530;28;20039;-64
2021/01/09 03:00:45;;;;;;;10.77;6.03;;;0.60;99.90;;;;;;4964375;28;20049;-68
2021/01/09 03:03:11;;;;;;;12.20;7.00;;;0.60;99.90;;;;;;4963580;28;20062;-65
2021/01/09 03:05:37;;;;;;;10.57;6.88;;;0.60;99.90;;;;;;4966859;28;20467;-70
2021/01/09 03:08:04;;;;;;;11.27;6.82;;;0.50;99.90;;;;;;4965256;28;20050;-69
2021/01/09 03:10:31;;;;;;;11.30;6.93;;;0.60;99.90;;;;;;4966703;28;20068;-67
2021/01/09 03:12:57;;;;;;;11.57;7.35;;;0.60;99.90;;;;;;4965154;28;20070;-67
2021/01/09 03:15:24;;;;;;;12.50;7.40;;;0.60;99.90;;;;;;4963764;28;20755;-70
2021/01/09 03:17:52;;;;;;;12.65;7.18;;;0.60;99.90;;;;;;4965787;28;20077;-68
2021/01/09 03:20:18;;;;;;;13.20;6.85;;;0.60;99.90;;;;;;4966173;28;20463;-64
2021/01/09 03:22:44;;;;;;;10.95;6.97;;;0.60;99.90;;;;;;4962960;28;20117;-69
2021/01/09 03:25:11;;;;;;;11.00;7.30;;;0.60;99.90;;;;;;4964051;28;20046;-65
2021/01/09 03:27:38;;;;;;;11.45;7.32;;;0.60;99.90;;;;;;4966387;28;20085;-64
2021/01/09 03:30:05;;;;;;;15.25;7.43;;;0.60;99.90;;;;;;4965586;28;20058;-70
2021/01/09 03:32:32;;;;;;;9.48;6.47;;;0.60;99.90;;;;;;4966491;28;20051;-65
2021/01/09 03:34:58;;;;;;;13.10;8.35;;;0.60;99.90;;;;;;4965227;28;20101;-64
2021/01/09 03:37:25;;;;;;;12.93;8.07;;;0.60;99.90;;;;;;4962935;28;20049;-68
2021/01/09 03:39:51;;;;;;;14.27;8.98;;;0.60;99.90;;;;;;4964611;28;20539;-69
2021/01/09 03:42:17;;;;;;;13.57;8.55;;;0.60;99.90;;;;;;4965281;28;20046;-64
2021/01/09 03:44:44;;;;;;;14.15;7.93;;;0.60;99.90;;;;;;4966886;28;20051;-66
2021/01/09 03:47:10;;;;;;;11.13;7.63;;;0.60;99.90;;;;;;4963780;28;20046;-65
2021/01/09 03:49:38;;;;;;;12.20;8.05;;;0.60;99.90;;;;;;4967553;28;20046;-64
2021/01/09 03:52:05;;;;;;;12.98;9.48;;;0.60;99.90;;;;;;4963580;28;20050;-64
2021/01/09 03:54:31;;;;;;;12.40;7.80;;;0.50;99.90;;;;;;4970807;28;20058;-65
2021/01/09 03:56:57;;;;;;;14.35;9.88;;;0.60;99.90;;;;;;4969568;28;20457;-70
2021/01/09 03:59:24;;;;;;;14.30;9.30;;;0.50;99.90;;;;;;4963499;28;20078;-68
2021/01/09 04:01:50;;;;;;;15.23;9.10;;;0.50;99.90;;;;;;4963093;28;20047;-65
2021/01/09 04:04:17;;;;;;;15.20;9.43;;;0.50;99.90;;;;;;4964472;28;20601;-65
2021/01/09 04:06:43;;;;;;;14.20;8.95;;;0.50;99.90;;;;;;4964668;28;20175;-68
2021/01/09 04:09:10;;;;;;;15.57;9.50;;;0.50;99.90;;;;;;4961630;28;20057;-67
2021/01/09 04:11:36;;;;;;;17.98;11.40;;;0.50;99.90;;;;;;4963491;28;20569;-70
2021/01/09 04:14:03;;;;;;;14.73;9.98;;;0.50;99.90;;;;;;4963944;28;20055;-65
2021/01/09 04:16:33;;;;;;;15.10;10.68;;;0.50;99.90;;;;;;4964264;28;20121;-68
2021/01/09 04:19:00;;;;;;;11.60;9.05;;;0.50;99.90;;;;;;4960697;28;20121;-66
2021/01/09 04:21:27;;;;;;;17.40;11.55;;;0.40;99.90;;;;;;4962766;28;20050;-66
2021/01/09 04:23:53;;;;;;;18.42;10.80;;;0.50;99.90;;;;;;4963148;28;20042;-66
2021/01/09 04:26:19;;;;;;;14.30;9.63;;;0.40;99.90;;;;;;4967923;28;20074;-66
2021/01/09 04:29:04;;;;;;;14.80;9.82;;;0.50;99.90;;;;;;4967176;28;20108;-65
2021/01/09 04:31:31;;;;;;;13.10;9.32;;;0.50;99.90;;;;;;4966227;28;20049;-70
2021/01/09 04:33:59;;;;;;;13.07;8.48;;;0.50;99.90;;;;;;4968051;28;20145;-67
2021/01/09 04:36:25;;;;;;;12.90;8.80;;;0.50;99.90;;;;;;4965970;28;20105;-65
2021/01/09 04:38:52;;;;;;;12.27;8.45;;;0.50;99.90;;;;;;4967208;28;20054;-65
2021/01/09 04:41:20;;;;;;;11.93;7.78;;;0.50;99.90;;;;;;4966386;28;20054;-66
2021/01/09 04:43:50;;;;;;;11.55;9.48;;;0.50;99.90;;;;;;4967018;28;20058;-70
2021/01/09 04:46:17;;;;;;;13.35;9.63;;;0.50;99.90;;;;;;4967654;28;20105;-67
2021/01/09 04:48:44;;;;;;;13.10;7.70;;;0.50;99.90;;;;;;4963356;28;20066;-66
2021/01/09 04:51:11;;;;;;;13.18;9.07;;;0.50;99.90;;;;;;4959060;28;20046;-64
2021/01/09 04:53:40;;;;;;;11.75;8.10;;;0.50;99.90;;;;;;4965270;28;20062;-64
2021/01/09 04:56:06;;;;;;;9.38;6.82;;;0.50;99.90;;;;;;4967304;28;20053;-67
2021/01/09 04:58:33;;;;;;;12.43;8.68;;;0.50;99.90;;;;;;4966934;28;20046;-66
2021/01/09 05:00:59;;;;;;;11.90;7.97;;;0.50;99.90;;;;;;4963481;28;20098;-67
2021/01/09 05:03:26;;;;;;;11.73;7.13;;;0.50;99.90;;;;;;4962121;28;20142;-65
2021/01/09 05:05:53;;;;;;;12.40;7.55;;;0.50;99.90;;;;;;4961914;28;20102;-70
2021/01/09 05:08:19;;;;;;;9.73;7.35;;;0.40;99.90;;;;;;4966954;28;20050;-69
2021/01/09 05:10:49;;;;;;;9.02;7.40;;;0.40;99.90;;;;;;4966987;28;20652;-64
2021/01/09 05:13:16;;;;;;;9.95;7.32;;;0.40;99.90;;;;;;4963920;28;20495;-65
2021/01/09 05:15:43;;;;;;;8.57;6.45;;;0.40;99.90;;;;;;4967680;28;20118;-67
2021/01/09 05:18:09;;;;;;;9.10;6.15;;;0.40;99.90;;;;;;4967956;28;20046;-66
2021/01/09 05:20:36;;;;;;;9.18;6.47;;;0.40;99.90;;;;;;4968245;28;20746;-65
2021/01/09 05:23:03;;;;;;;9.07;6.75;;;0.40;99.90;;;;;;4966693;28;20047;-66
2021/01/09 05:25:30;;;;;;;9.02;5.93;;;0.30;99.90;;;;;;4967021;28;20058;-64
2021/01/09 05:27:58;;;;;;;7.18;5.82;;;0.40;99.90;;;;;;4968032;28;20130;-64
2021/01/09 05:30:25;;;;;;;9.00;6.80;;;0.40;99.90;;;;;;4968441;28;20975;-66
2021/01/09 05:32:52;;;;;;;8.65;6.45;;;0.40;99.90;;;;;;4968450;28;20038;-67
2021/01/09 05:35:19;;;;;;;8.15;5.85;;;0.40;99.90;;;;;;4966009;28;20046;-65
2021/01/09 05:37:50;;;;;;;10.90;8.82;;;0.40;99.90;;;;;;4966048;28;20137;-66
2021/01/09 05:40:19;;;;;;;5.63;4.38;;;0.40;99.90;;;;;;4967751;28;20515;-64
2021/01/09 05:42:46;;;;;;;5.57;3.93;;;0.40;99.90;;;;;;4969807;28;20049;-65
2021/01/09 05:45:13;;;;;;;6.75;5.35;;;0.40;99.90;;;;;;4966873;28;20479;-65
2021/01/09 05:47:39;;;;;;;9.45;5.18;;;0.40;99.90;;;;;;4966714;28;20054;-67
2021/01/09 05:50:25;;;;;;;5.28;4.20;;;0.40;99.90;;;;;;4965244;28;20209;-67
2021/01/09 05:52:51;;;;;;;9.27;5.40;;;0.40;99.90;;;;;;4972181;28;20038;-64
2021/01/09 05:55:18;;;;;;;9.40;5.07;;;0.40;99.90;;;;;;4969470;28;20050;-65
2021/01/09 05:57:44;;;;;;;5.28;4.50;;;0.40;99.90;;;;;;4967887;28;20128;-68
2021/01/09 06:00:12;;;;;;;8.82;5.22;;;0.40;99.90;;;;;;4964549;28;20439;-67
2021/01/09 06:03:03;;;;;;;5.75;4.60;;;0.40;99.90;;;;;;4961602;28;20109;-64
2021/01/09 06:05:42;;;;;;;6.32;4.50;;;0.40;99.90;;;;;;4964670;28;21145;-65
2021/01/09 06:08:11;;;;;;;6.25;3.92;;;0.40;99.90;;;;;;4965574;28;20047;-67
2021/01/09 06:10:40;;;;;;;7.45;5.03;;;0.40;99.90;;;;;;4965538;28;20110;-65
2021/01/09 06:13:09;;;;;;;6.00;3.75;;;0.40;99.90;;;;;;4966004;28;20055;-70
2021/01/09 06:15:37;;;;;;;5.38;3.88;;;0.40;99.90;;;;;;4964902;28;20067;-66
2021/01/09 06:18:04;;;;;;;5.07;4.20;;;0.40;99.90;;;;;;4966146;28;20776;-67
2021/01/09 06:20:30;;;;;;;6.80;4.53;;;0.40;99.90;;;;;;4965663;28;20097;-68
2021/01/09 06:22:58;;;;;;;5.47;4.47;;;0.30;99.90;;;;;;4965350;28;20133;-71
2021/01/09 06:25:27;;;;;;;6.50;3.72;;;0.40;99.90;;;;;;4964501;28;20628;-66
2021/01/09 06:28:01;;;;;;;7.03;4.10;;;0.30;99.90;;;;;;4965666;28;20122;-68
2021/01/09 06:30:32;;;;;;;7.75;4.20;;;0.30;99.90;;;;;;4964391;28;20097;-65
2021/01/09 06:33:03;;;;;;;5.90;4.47;;;0.30;99.90;;;;;;4964604;28;20446;-70
2021/01/09 06:35:35;;;;;;;4.38;3.90;;;0.30;99.90;;;;;;4961634;28;20386;-66
2021/01/09 06:38:02;;;;;;;6.43;4.75;;;0.30;99.90;;;;;;4964611;28;20070;-65
2021/01/09 06:40:29;;;;;;;7.45;5.13;;;0.30;99.90;;;;;;4963784;28;20068;-65
2021/01/09 06:42:56;;;;;;;7.15;4.43;;;0.30;99.90;;;;;;4963579;28;20039;-64
2021/01/09 06:45:23;;;;;;;7.40;5.32;;;0.30;99.90;;;;;;4964113;28;20073;-65
2021/01/09 06:47:59;;;;;;;8.30;6.10;;;0.30;99.90;;;;;;4964007;28;20495;-67
2021/01/09 06:50:25;;;;;;;9.68;6.55;;;0.30;99.90;;;;;;4958546;28;20053;-66
2021/01/09 06:52:55;;;;;;;10.27;6.43;;;0.30;99.90;;;;;;4964439;28;20050;-67
2021/01/09 06:55:36;;;;;;;8.23;5.72;;;0.30;99.90;;;;;;4963329;28;20046;-64
2021/01/09 06:58:10;;;;;;;8.63;5.85;;;0.30;99.90;;;;;;4964899;28;20045;-65
2021/01/09 07:00:37;;;;;;;9.70;5.25;;;0.30;99.90;;;;;;4957795;28;20047;-71
2021/01/09 07:03:15;;;;;;;8.38;5.82;;;0.30;99.90;;;;;;4959584;28;20042;-64
2021/01/09 07:05:52;;;;;;;6.13;4.60;;;0.30;99.90;;;;;;4963343;28;20065;-64
2021/01/09 07:08:23;;;;;;;6.93;4.60;;;0.30;99.90;;;;;;4958294;28;20043;-66
2021/01/09 07:10:55;;;;;;;5.88;5.05;;;0.30;99.90;;;;;;4964373;28;20058;-71
2021/01/09 07:13:23;;;;;;;10.43;5.22;;;0.30;99.90;;;;;;4963453;28;20053;-65
2021/01/09 07:16:12;;;;;;;7.30;5.47;;;0.30;99.90;;;;;;4964838;28;20058;-68
2021/01/09 07:18:46;;;;;;;11.10;6.53;;;0.30;99.90;;;;;;4964842;28;20447;-71
2021/01/09 07:21:36;;;;;;;8.30;6.32;;;0.30;99.90;;;;;;4962788;28;20407;-68
2021/01/09 07:24:06;;;;;;;9.70;6.30;;;0.30;99.90;;;;;;4963657;28;20050;-64
2021/01/09 07:26:35;;;;;;;8.70;5.55;;;0.30;99.90;;;;;;4965330;28;20122;-67
2021/01/09 07:29:04;;;;;;;6.27;4.13;;;0.30;99.90;;;;;;4964588;28;20201;-70
2021/01/09 07:31:31;;;;;;;8.20;4.97;;;0.30;99.90;;;;;;4963733;28;20136;-66
2021/01/09 07:33:59;;;;;;;8.10;5.18;;;0.30;99.90;;;;;;4964161;28;20057;-70
2021/01/09 07:36:31;;;;;;;10.65;6.20;;;0.30;99.90;;;;;;4964444;28;20229;-65
2021/01/09 07:39:05;;;;;;;9.68;7.15;;;0.30;99.90;;;;;;4964169;28;20141;-67
2021/01/09 07:41:32;;;;;;;9.65;6.93;;;0.30;99.90;;;;;;4962173;28;20487;-64
2021/01/09 07:44:12;;;;;;;9.68;6.63;;;0.30;99.90;;;;;;4964579;28;20499;-66
2021/01/09 07:46:54;;;;;;;9.00;6.68;;;0.30;99.90;;;;;;4963655;28;20562;-68
2021/01/09 07:49:25;;;;;;;8.02;6.22;;;0.30;99.90;;;;;;4962514;28;20142;-64
2021/01/09 07:51:54;;;;;;;9.57;6.72;;;0.30;99.90;;;;;;4964151;28;20577;-70
2021/01/09 07:54:39;;;;;;;8.85;6.95;;;0.30;99.90;;;;;;4963998;28;20073;-70
2021/01/09 07:57:18;;;;;;;8.85;6.28;;;0.30;99.90;;;;;;4961662;28;20051;-73
2021/01/09 07:59:54;;;;;;;13.00;6.25;;;0.30;99.90;;;;;;4959986;28;20113;-71
2021/01/09 08:02:23;;;;;;;9.88;6.53;;;0.30;99.90;;;;;;4956962;28;20776;-70
2021/01/09 08:04:50;;;;;;;10.23;7.55;;;0.30;99.90;;;;;;4960110;28;20368;-66
2021/01/09 08:07:19;;;;;;;9.40;6.40;;;0.30;99.90;;;;;;4958448;28;20498;-67
2021/01/09 08:09:46;;;;;;;9.85;6.95;;;0.30;99.90;;;;;;4959457;28;20061;-70
2021/01/09 08:12:12;;;;;;;10.90;6.63;;;0.30;99.90;;;;;;4952664;28;20241;-67
2021/01/09 08:14:38;;;;;;;9.18;6.82;;;0.40;99.90;;;;;;4963725;28;20138;-65
2021/01/09 08:17:11;;;;;;;9.98;6.50;;;0.30;99.90;;;;;;4963953;28;20121;-71
2021/01/09 08:19:38;;;;;;;11.82;6.63;;;0.30;99.90;;;;;;4960578;28;20391;-67
2021/01/09 08:22:04;;;;;;;7.28;5.90;;;0.30;99.90;;;;;;4963343;28;20070;-65
2021/01/09 08:24:32;;;;;;;7.45;6.70;;;0.30;99.90;;;;;;4963732;28;20101;-64
2021/01/09 08:26:58;;;;;;;9.73;7.63;;;0.30;99.90;;;;;;4964446;28;20525;-68
2021/01/09 08:29:27;;;;;;;8.75;6.35;;;0.40;99.90;;;;;;4962516;28;20051;-67
2021/01/09 08:31:55;;;;;;;9.30;6.68;;;0.30;99.90;;;;;;4963897;28;20121;-67
2021/01/09 08:34:23;;;;;;;9.45;7.93;;;0.40;99.90;;;;;;4963081;28;20050;-67
2021/01/09 08:36:57;;;;;;;9.13;5.72;;;0.40;99.90;;;;;;4964094;28;20038;-67
2021/01/09 08:39:24;;;;;;;9.55;6.55;;;0.40;99.90;;;;;;4961823;28;20173;-67
2021/01/09 08:41:51;;;;;;;11.43;8.95;;;0.40;99.90;;;;;;4963341;28;20852;-64
2021/01/09 08:44:18;;;;;;;10.52;7.35;;;0.40;99.90;;;;;;4964283;28;20391;-64
2021/01/09 08:46:47;;;;;;;12.43;8.20;;;0.40;99.90;;;;;;4962718;28;20417;-67
2021/01/09 08:49:27;;;;;;;10.40;7.70;;;0.40;99.90;;;;;;4962510;28;20050;-69
2021/01/09 08:52:05;;;;;;;8.73;7.10;;;0.40;99.90;;;;;;4962939;28;20065;-70
2021/01/09 08:54:32;;;;;;;12.38;8.18;;;0.40;99.90;;;;;;4964094;28;20050;-67
2021/01/09 08:57:04;;;;;;;11.25;7.90;;;0.50;99.90;;;;;;4963434;28;20840;-68
2021/01/09 08:59:30;;;;;;;8.85;6.65;;;0.50;99.90;;;;;;4961557;28;20142;-65
2021/01/09 09:02:03;;;;;;;12.80;8.85;;;0.40;99.90;;;;;;4963660;28;20069;-66
2021/01/09 09:04:30;;;;;;;11.80;7.30;;;0.40;99.90;;;;;;4960401;28;20050;-67
2021/01/09 09:07:09;;;;;;;8.95;6.93;;;0.50;99.90;;;;;;4963873;28;20089;-65
2021/01/09 09:09:41;;;;;;;11.35;7.47;;;0.50;99.90;;;;;;4961993;28;20698;-66
2021/01/09 09:12:10;;;;;;;11.13;7.70;;;0.50;99.90;;;;;;4963607;28;20054;-66
2021/01/09 09:14:37;;;;;;;11.80;7.75;;;0.50;99.90;;;;;;4966780;28;20106;-67
2021/01/09 09:17:05;;;;;;;18.40;10.32;;;0.50;99.90;;;;;;4966417;28;20042;-72
2021/01/09 09:19:37;;;;;;;17.17;9.80;;;0.50;99.90;;;;;;4962891;28;20071;-64
2021/01/09 09:22:04;;;;;;;11.27;8.13;;;0.50;99.90;;;;;;4966581;28;20567;-67
2021/01/09 09:24:57;;;;;;;10.70;7.40;;;0.60;99.90;;;;;;4966626;28;20046;-67
2021/01/09 09:27:25;;;;;;;13.07;9.02;;;0.60;99.90;;;;;;4963761;28;20357;-64
2021/01/09 09:30:04;;;;;;;11.52;7.53;;;0.60;99.90;;;;;;4964456;28;20470;-67
2021/01/09 09:32:31;;;;;;;10.20;8.50;;;0.60;99.90;;;;;;4966795;28;20050;-66
2021/01/09 09:34:58;;;;;;;11.77;7.43;;;0.60;99.90;;;;;;4966488;28;20146;-64
2021/01/09 09:37:43;;;;;;;13.02;7.85;;;0.60;99.90;;;;;;4962744;28;20061;-64
2021/01/09 09:40:23;;;;;;;12.82;8.02;;;0.60;99.90;;;;;;4966561;28;20208;-67
2021/01/09 09:42:50;;;;;;;8.75;7.40;;;0.60;99.90;;;;;;4963720;28;20043;-67
2021/01/09 09:45:17;;;;;;;10.60;7.32;;;0.70;99.90;;;;;;4964980;28;20237;-66
2021/01/09 09:47:48;;;;;;;18.55;8.60;;;0.70;99.90;;;;;;4966214;28;20042;-65
2021/01/09 09:50:20;;;;;;;10.60;8.15;;;0.70;99.90;;;;;;4964569;28;20046;-68
2021/01/09 09:52:57;;;;;;;10.52;8.43;;;0.70;99.90;;;;;;4965407;28;20160;-69
2021/01/09 09:55:25;;;;;;;14.00;9.02;;;0.70;99.90;;;;;;4965108;28;20050;-68
2021/01/09 09:58:08;;;;;;;13.57;8.20;;;0.70;99.90;;;;;;4966371;28;20043;-64
2021/01/09 10:00:46;;;;;;;11.93;7.95;;;0.70;99.90;;;;;;4956018;28;20142;-67
2021/01/09 10:03:12;;;;;;;10.88;8.43;;;0.70;99.90;;;;;;4964495;28;20096;-69
2021/01/09 10:05:41;;;;;;;11.68;9.40;;;0.80;99.90;;;;;;4965995;28;20146;-67
2021/01/09 10:08:12;;;;;;;14.20;9.57;;;0.80;99.90;;;;;;4965290;28;20108;-65
2021/01/09 10:10:39;;;;;;;14.50;10.07;;;0.80;99.90;;;;;;4965169;28;20051;-67
2021/01/09 10:13:05;;;;;;;13.45;9.73;;;0.80;99.90;;;;;;4965978;28;20074;-65
2021/01/09 10:15:32;;;;;;;14.52;11.65;;;0.80;99.90;;;;;;4963469;28;20047;-67
2021/01/09 10:18:01;;;;;;;16.23;11.27;;;0.80;99.90;;;;;;4965272;28;20070;-67
2021/01/09 10:20:28;;;;;;;14.25;10.13;;;0.90;99.90;;;;;;4966038;28;20058;-67
2021/01/09 10:22:55;;;;;;;15.73;10.20;;;0.90;99.90;;;;;;4963668;28;20780;-65
2021/01/09 10:25:22;;;;;;;14.10;9.65;;;0.90;99.90;;;;;;4963494;28;20046;-68
2021/01/09 10:27:51;;;;;;;11.82;9.57;;;0.90;99.90;;;;;;4965016;28;20035;-64
2021/01/09 10:30:18;;;;;;;13.82;9.82;;;0.90;99.90;;;;;;4966109;28;20054;-67
2021/01/09 10:32:45;;;;;;;11.98;9.13;;;0.90;99.90;;;;;;4964770;28;20132;-69
2021/01/09 10:35:11;;;;;;;13.55;8.75;;;0.90;99.90;;;;;;4963589;28;20448;-64
2021/01/09 10:37:38;;;;;;;13.30;9.02;;;0.90;99.90;;;;;;4964667;28;20192;-66
2021/01/09 10:40:05;;;;;;;13.70;9.32;;;1.00;99.90;;;;;;4965121;28;20470;-69
2021/01/09 10:42:32;;;;;;;12.40;9.13;;;1.00;99.90;;;;;;4965397;28;20549;-64
2021/01/09 10:44:59;;;;;;;10.43;8.25;;;1.00;99.90;;;;;;4964878;28;20065;-66
2021/01/09 10:47:26;;;;;;;10.63;7.20;;;1.00;99.90;;;;;;4963689;28;20113;-71
2021/01/09 10:49:55;;;;;;;10.40;7.78;;;1.00;99.90;;;;;;4965281;28;20432;-65
2021/01/09 10:52:22;;;;;;;12.05;7.13;;;1.10;99.90;;;;;;4964695;28;20042;-66
2021/01/09 10:54:48;;;;;;;10.27;7.63;;;1.10;99.90;;;;;;4962427;28;20046;-68
2021/01/09 10:57:15;;;;;;;13.50;7.80;;;1.10;99.90;;;;;;4963439;28;20382;-65
2021/01/09 10:59:42;;;;;;;13.52;8.13;;;1.10;99.90;;;;;;4965249;28;20487;-65
2021/01/09 11:02:09;;;;;;;10.02;6.95;;;1.10;99.90;;;;;;4964259;28;20054;-69
2021/01/09 11:04:35;;;;;;;10.63;7.35;;;1.10;99.90;;;;;;4964829;28;20050;-64
2021/01/09 11:07:02;;;;;;;8.88;6.43;;;1.10;99.90;;;;;;4964230;28;20062;-70
2021/01/09 11:09:28;;;;;;;10.25;7.28;;;1.20;99.90;;;;;;4963282;28;20618;-68
2021/01/09 11:11:55;;;;;;;10.95;8.52;;;1.20;99.90;;;;;;4964185;28;20046;-65
2021/01/09 11:14:21;;;;;;;13.27;8.60;;;1.20;99.90;;;;;;4964513;28;20125;-64
2021/01/09 11:16:56;;;;;;;11.88;7.80;;;1.30;99.90;;;;;;4964526;28;20050;-67
2021/01/09 11:19:23;;;;;;;10.50;8.15;;;1.30;99.90;;;;;;4963018;28;20034;-66
2021/01/09 11:21:50;;;;;;;11.77;7.60;;;1.30;99.90;;;;;;4964373;28;20687;-69
2021/01/09 11:24:16;;;;;;;11.60;7.90;;;1.30;99.90;;;;;;4963799;28;20091;-65
2021/01/09 11:26:43;;;;;;;13.27;8.88;;;1.30;99.90;;;;;;4964891;28;20051;-64
2021/01/09 11:29:09;;;;;;;12.23;9.20;;;1.30;99.90;;;;;;4963064;28;20055;-66
2021/01/09 11:31:35;;;;;;;13.48;8.85;;;1.30;99.90;;;;;;4964323;28;20066;-73
2021/01/09 11:34:02;;;;;;;12.90;9.45;;;1.30;99.90;;;;;;4964128;28;20047;-67
2021/01/09 11:36:28;;;;;;;12.70;8.45;;;1.20;99.90;;;;;;4964008;28;20051;-64
2021/01/09 11:38:55;;;;;;;10.98;8.93;;;1.20;99.90;;;;;;4963208;28;20125;-67
2021/01/09 11:41:21;;;;;;;12.88;7.43;;;1.20;99.90;;;;;;4961838;28;20053;-67
2021/01/09 11:43:48;;;;;;;13.73;8.73;;;1.20;99.90;;;;;;4964232;28;20051;-67
2021/01/09 11:46:14;;;;;;;11.27;8.02;;;1.20;99.90;;;;;;4965117;28;20043;-70
2021/01/09 11:48:43;;;;;;;12.77;8.85;;;1.20;99.90;;;;;;4963661;28;20047;-67
2021/01/09 11:51:09;;;;;;;11.77;9.05;;;1.20;99.90;;;;;;4959376;28;20181;-68
2021/01/09 11:53:36;;;;;;;12.27;7.80;;;1.20;99.90;;;;;;4963888;28;20054;-70
2021/01/09 11:56:03;;;;;;;10.75;8.57;;;1.20;99.90;;;;;;4964516;28;20050;-68
2021/01/09 11:58:30;;;;;;;11.88;8.77;;;1.20;99.90;;;;;;4962426;28;20061;-67
2021/01/09 12:00:56;;;;;;;14.18;10.57;;;1.20;99.90;;;;;;4954711;28;20046;-65
2021/01/09 12:03:23;;;;;;;14.02;10.63;;;1.20;99.90;;;;;;4961361;28;20078;-64
2021/01/09 12:05:49;;;;;;;11.32;8.75;;;1.20;99.90;;;;;;4963813;28;20111;-70
2021/01/09 12:08:16;;;;;;;11.50;8.88;;;1.20;99.90;;;;;;4964018;28;20454;-66
2021/01/09 12:10:43;;;;;;;11.88;8.40;;;1.20;99.90;;;;;;4963294;28;20042;-65
2021/01/09 12:13:09;;;;;;;9.65;7.22;;;1.20;99.90;;;;;;4962776;28;20050;-67
2021/01/09 12:15:37;;;;;;;11.43;8.00;;;1.20;99.90;;;;;;4963276;28;20411;-66
2021/01/09 12:18:04;;;;;;;10.00;7.13;;;1.20;99.90;;;;;;4963219;28;20055;-65
2021/01/09 12:20:50;;;;;;;12.30;7.47;;;1.20;99.90;;;;;;4963988;28;20062;-73
2021/01/09 12:23:16;;;;;;;9.90;7.93;;;1.20;99.90;;;;;;4961578;28;20277;-65
2021/01/09 12:25:43;;;;;;;10.18;7.72;;;1.20;99.90;;;;;;4963899;28;20271;-65
2021/01/09 12:28:09;;;;;;;9.82;7.43;;;1.20;99.90;;;;;;4964150;28;20048;-68
2021/01/09 12:30:37;;;;;;;12.80;8.57;;;1.20;99.90;;;;;;4963571;28;20050;-70
2021/01/09 12:33:04;;;;;;;14.63;9.02;;;1.20;99.90;;;;;;4962982;28;20054;-64
2021/01/09 12:35:31;;;;;;;10.00;8.05;;;1.20;99.90;;;;;;4962896;28;20058;-67
2021/01/09 12:37:58;;;;;;;11.38;7.80;;;1.10;99.90;;;;;;4962546;28;20505;-68
2021/01/09 12:40:24;;;;;;;9.73;7.82;;;1.10;99.90;;;;;;4963834;28;20050;-71
2021/01/09 12:42:50;;;;;;;9.48;6.93;;;1.10;99.90;;;;;;4963776;28;20039;-68
2021/01/09 12:45:17;;;;;;;11.45;8.05;;;1.10;99.90;;;;;;4962448;28;20054;-65
2021/01/09 12:47:46;;;;;;;11.25;7.47;;;1.10;99.90;;;;;;4967373;28;20340;-67
2021/01/09 12:50:13;;;;;;;11.48;8.45;;;1.10;99.90;;;;;;4967279;28;20065;-71
2021/01/09 12:52:39;;;;;;;9.43;7.68;;;1.10;99.90;;;;;;4965879;28;20144;-68
2021/01/09 12:55:06;;;;;;;12.68;8.07;;;1.10;99.90;;;;;;4967679;28;20038;-66
2021/01/09 12:57:33;;;;;;;11.77;7.95;;;1.10;99.90;;;;;;4965951;28;20571;-67